Tiempo atmosférico en la estación meteorológica de Las Palmas de Gran Canaria, Tafira, Las Palmas (269 m.)



Fecha
DESCASC
Temp. máxima en grados centígrados (hora)
DESCASC
Temp. mínima en grados centígrados (hora)
DESCASC
Temp. media en grados centígrados
DESCASC
Racha de viento máxima en m/sg (hora)
DESCASC
Velocidad máxima media en intervalos de 10 minutos(hora)
DESCASC
Precipitaciones diarias en mm
DESCASC
Precipitaciones de 00:00 a 06:00 en mm
DESCASC
Precipitaciones de 06:00 a 12:00 en mm
DESCASC
Precipitaciones de 12:00 a 18:00 en mm
DESCASC
Precipitaciones de 18:00 a 24:00 en mm
DESCASC
23-06-2019 24.1 (14:50) 18.3 (05:20) 21.2 8.33 (02:10) 4.44 (03:00) 0 0 0 0 0
22-06-2019 22 (14:50) 17.2 (05:10) 19.6 10.56 (15:30) 6.39 (15:40) 0 0 0 0 0
21-06-2019 21.9 (15:20) 17.6 (06:00) 19.8 10.28 (09:10) 5.83 (09:20) 0 0 0 0 0
20-06-2019 22.8 (14:30) 18 (00:00) 20.4 9.72 (17:30) 5.83 (17:20) 0 0 0 0 0
19-06-2019 -- (--) -- (--) -- -- (--) -- (--) -- -- -- -- 0
18-06-2019 -- (--) -- (--) -- -- (--) -- (--) -- 0 0 0 --
17-06-2019 23.2 (16:20) 14.3 (00:00) 18.8 5 (14:10) 2.5 (13:40) 0 0 0 0 0
16-06-2019 20.6 (16:50) 14.1 (00:00) 17.4 5.28 (17:40) 2.78 (11:00) 0 0 0 0 0
15-06-2019 20.6 (11:00) 15.2 (00:00) 17.9 6.94 (12:30) 3.61 (12:50) 0 0 0 0 0
14-06-2019 19.6 (13:50) 14.8 (00:00) 17.2 6.11 (12:50) 3.33 (12:20) 0 0 0 0 0
13-06-2019 21.3 (14:40) 15.8 (00:00) 18.5 10 (14:50) 5.83 (15:30) 0 0 0 0 0
12-06-2019 20.8 (15:10) 16 (00:00) 18.4 10.56 (17:00) 6.39 (17:10) 0 0 0 0 0
11-06-2019 19.4 (15:00) 16.4 (00:00) 17.9 10.83 (18:40) 6.39 (09:00) 0 0 0 0 0
10-06-2019 20.3 (15:20) 16.8 (00:00) 18.5 10.83 (14:50) 6.11 (15:40) 0 0 0 0 0
09-06-2019 20.1 (14:50) 16.4 (00:00) 18.3 8.89 (18:00) 5.28 (18:10) 0 0 0 0 0
08-06-2019 20.7 (16:00) 17 (00:00) 18.9 8.89 (17:20) 5.28 (17:30) 0 0 0 0 0
07-06-2019 21 (16:20) 16 (00:00) 18.5 9.17 (01:30) 5 (02:10) 0 0 0 0 0
06-06-2019 20.1 (13:20) 16.7 (00:00) 18.4 10.28 (16:30) 5.83 (16:30) 0 0 0 0 0
05-06-2019 21.3 (13:30) 17.4 (00:00) 19.3 8.33 (03:50) 5 (16:20) 0 0 0 0 0
04-06-2019 23.8 (12:50) 16.6 (00:00) 20.2 8.89 (19:00) 5.83 (19:20) 0 0 0 0 0
03-06-2019 24.8 (17:20) 18.1 (00:00) 21.4 7.78 (23:10) 4.72 (15:30) 0 0 0 0 0
02-06-2019 24.3 (18:40) 16.1 (00:00) 20.2 8.33 (15:10) 4.44 (15:50) 0 0 0 0 0
01-06-2019 21.4 (13:40) 16.4 (00:00) 18.9 11.67 (16:50) 5.83 (16:20) 0 0 0 0 0
31-05-2019 21 (16:00) 16.1 (00:00) 18.6 13.06 (20:50) 6.11 (13:10) 0 0 0 0 0
30-05-2019 20.4 (15:50) 15.7 (00:00) 18 11.39 (15:40) 6.67 (12:10) 0 0 0 0 0
29-05-2019 20.2 (15:10) 16.1 (00:00) 18.2 10.56 (20:50) 6.67 (13:10) 0 0 0 0 0
28-05-2019 20.6 (15:00) 16.9 (00:00) 18.8 8.89 (15:20) 5.83 (19:10) 0 0 0 0 0
27-05-2019 22.2 (13:20) 15.8 (00:00) 19 9.17 (19:10) 6.11 (19:10) 0 0 0 0 0
26-05-2019 20.5 (13:50) 15.9 (00:00) 18.2 10 (14:00) 5.83 (00:10) 0 0 0 0 0

Gráficas

Temp. máximas Temp. mínimas Temp. medias Precipitaciones Rachas de viento máximas Velocidades máximas media en intervalos de 10 minutos

Datos horarios

Fecha y hora oficial Temperatura (ºC) Velocidad del viento (km/h) Dirección del viento Racha (km/h) Dirección de racha Precipitación (mm) Presión (hPa) Tendencia (hPa) Humedad (%)
2019-06-24 23:00:00 20.6 3 Oeste 5 Nordeste 0 -- -- 89
2019-06-24 22:00:00 20.9 3 Nordeste 8 Noroeste 0 -- -- 88
2019-06-24 21:00:00 21.2 5 Norte 13 Norte 0 -- -- 83
2019-06-24 20:00:00 22.6 7 Norte 13 Norte 0 -- -- 77
2019-06-24 19:00:00 23 5 Noroeste 14 Noroeste 0 -- -- 77
2019-06-24 18:00:00 22.9 4 Noroeste 15 Norte 0 -- -- 77
2019-06-24 17:00:00 23.2 7 Norte 17 Norte 0 -- -- 74
2019-06-24 16:00:00 24.2 8 Norte 17 Noroeste 0 -- -- 68
2019-06-24 15:00:00 23.8 7 Norte 18 Nordeste 0 -- -- 69
2019-06-24 14:00:00 24.3 9 Nordeste 21 Este 0 -- -- 68
2019-06-24 13:00:00 24 12 Este 24 Nordeste 0 -- -- 67
2019-06-24 12:00:00 24.3 12 Este 22 Este 0 -- -- 66
2019-06-24 11:00:00 23.1 11 Este 19 Este 0 -- -- 71
2019-06-24 10:00:00 22.4 2 Noroeste 7 Este 0 -- -- 75
2019-06-24 09:00:00 21.8 4 Sudeste 9 Sudeste 0 -- -- 75
2019-06-24 08:00:00 19.8 4 Sur 8 Sur 0 -- -- 82
2019-06-24 07:00:00 18.4 5 Sur 9 Sur 0 -- -- 83
2019-06-24 06:00:00 18.9 3 Sudoeste 5 Oeste 0 -- -- 83
2019-06-24 05:00:00 19.8 3 Noroeste 10 Noroeste 0 -- -- 83
2019-06-24 04:00:00 19.7 4 Noroeste 10 Noroeste 0 -- -- 83
2019-06-24 03:00:00 19.7 4 Noroeste 11 Noroeste 0 -- -- 82
2019-06-24 02:00:00 19.6 6 Oeste 14 Oeste 0 -- -- 82
2019-06-24 01:00:00 19.3 4 Oeste 8 Oeste 0 -- -- 81
2019-06-24 00:00:00 19.7 3 Oeste 12 Oeste 0 -- -- 80
2019-06-23 23:00:00 20.1 7 Noroeste 14 Oeste 0 -- -- 80
2019-06-23 22:00:00 20.3 7 Noroeste 13 Norte 0 -- -- 79
2019-06-23 21:00:00 21 8 Noroeste 15 Noroeste 0 -- -- 77
2019-06-23 20:00:00 22.3 9 Noroeste 22 Noroeste 0 -- -- 73
2019-06-23 19:00:00 23 9 Noroeste 21 Noroeste 0 -- -- 69
2019-06-23 18:00:00 23.4 11 Noroeste 21 Noroeste 0 -- -- 64
2019-06-23 17:00:00 23.7 10 Noroeste 19 Norte 0 -- -- 64
2019-06-23 16:00:00 23.5 8 Noroeste 23 Noroeste 0 -- -- 66
2019-06-23 15:00:00 23.7 11 Noroeste 23 Noroeste 0 -- -- 69
2019-06-23 14:00:00 24 10 Norte 22 Norte 0 -- -- 68
2019-06-23 13:00:00 23.6 10 Norte 23 Norte 0 -- -- 69
2019-06-23 12:00:00 23.1 9 Norte 20 Noroeste 0 -- -- 70
2019-06-23 11:00:00 22.7 10 Noroeste 19 Noroeste 0 -- -- 75
2019-06-23 10:00:00 21.1 12 Noroeste 21 Noroeste 0 -- -- 78
2019-06-23 09:00:00 19.6 12 Noroeste 22 Noroeste 0 -- -- 83
2019-06-23 08:00:00 18.9 9 Oeste 24 Oeste 0 -- -- 86
2019-06-23 07:00:00 18.6 11 Noroeste 27 Noroeste 0 -- -- 92
2019-06-23 06:00:00 18.4 10 Noroeste 27 Oeste 0 -- -- 86
2019-06-23 05:00:00 18.5 12 Noroeste 30 Noroeste 0 -- -- 89
2019-06-23 04:00:00 19 15 Noroeste 29 Noroeste 0 -- -- 86
2019-06-23 03:00:00 19.1 16 Noroeste 30 Noroeste 0 -- -- 85
2019-06-23 02:00:00 18.9 13 Noroeste 28 Oeste 0 -- -- 85
2019-06-23 01:00:00 19 14 Noroeste 29 Noroeste 0 -- -- 85
2019-06-23 00:00:00 19.1 12 Noroeste 26 Oeste 0 -- -- 84
2019-06-22 23:00:00 18.9 13 Noroeste 29 Oeste 0 -- -- 83
2019-06-22 22:00:00 18.8 15 Oeste 30 Oeste 0 -- -- 83
2019-06-22 21:00:00 19.1 17 Noroeste 34 Oeste 0 -- -- 81
2019-06-22 20:00:00 19.9 19 Noroeste 35 Oeste 0 -- -- 77
2019-06-22 19:00:00 20.5 18 Noroeste 37 Noroeste 0 -- -- 75
2019-06-22 18:00:00 21 17 Noroeste 36 Oeste 0 -- -- 73
2019-06-22 17:00:00 21.2 20 Noroeste 37 Noroeste 0 -- -- 71
2019-06-22 16:00:00 21.8 20 Noroeste 38 Noroeste 0 -- -- 65
2019-06-22 15:00:00 21.9 19 Noroeste 31 Norte 0 -- -- 67
2019-06-22 14:00:00 21.9 15 Noroeste 32 Norte 0 -- -- 67
2019-06-22 13:00:00 21.3 18 Noroeste 31 Noroeste 0 -- -- 69
2019-06-22 12:00:00 20.6 14 Noroeste 32 Noroeste 0 -- -- 73
2019-06-22 11:00:00 19.6 15 Noroeste 32 Noroeste 0 -- -- 75
2019-06-22 10:00:00 19.3 20 Noroeste 33 Noroeste 0 -- -- 79
2019-06-22 09:00:00 18.3 12 Noroeste 26 Oeste 0 -- -- 82
2019-06-22 08:00:00 17.9 12 Noroeste 22 Oeste 0 -- -- 79
2019-06-22 07:00:00 17.3 12 Noroeste 24 Noroeste 0 -- -- 87
2019-06-22 06:00:00 17.4 10 Noroeste 24 Oeste 0 -- -- 86
2019-06-22 05:00:00 17.3 12 Noroeste 23 Oeste 0 -- -- 87
2019-06-22 04:00:00 17.5 12 Noroeste 27 Noroeste 0 -- -- 85
2019-06-22 03:00:00 17.6 17 Noroeste 32 Noroeste 0 -- -- 83
2019-06-22 02:00:00 17.7 14 Noroeste 30 Noroeste 0 -- -- 85
2019-06-22 01:00:00 18.2 18 Noroeste 33 Noroeste 0 -- -- 85
2019-06-22 00:00:00 18 14 Noroeste 31 Oeste 0 -- -- 84
2019-06-21 23:00:00 18.3 16 Noroeste 31 Noroeste 0 -- -- 83
2019-06-21 22:00:00 18.4 15 Noroeste 28 Noroeste 0 -- -- 83
2019-06-21 21:00:00 18.6 14 Noroeste 28 Oeste 0 -- -- 81
2019-06-21 20:00:00 19.4 15 Noroeste 30 Noroeste 0 -- -- 79
2019-06-21 19:00:00 20.5 15 Noroeste 33 Oeste 0 -- -- 75
2019-06-21 18:00:00 20.1 17 Noroeste 30 Noroeste 0 -- -- 74
2019-06-21 17:00:00 20.7 15 Noroeste 33 Noroeste 0 -- -- 68
2019-06-21 16:00:00 20.9 17 Noroeste 31 Norte 0 -- -- 73
2019-06-21 15:00:00 21.3 14 Norte 31 Noroeste 0 -- -- 71
2019-06-21 14:00:00 21 16 Noroeste 29 Noroeste 0 -- -- 73
2019-06-21 13:00:00 20.4 15 Noroeste 28 Noroeste 0 -- -- 77
2019-06-21 12:00:00 20.2 15 Noroeste 28 Noroeste 0 -- -- 74
2019-06-21 11:00:00 19.7 19 Noroeste 31 Noroeste 0 -- -- 74
2019-06-21 10:00:00 18.6 13 Noroeste 37 Noroeste 0 -- -- 84
2019-06-21 09:00:00 18.4 20 Noroeste 30 Noroeste 0 -- -- 86
2019-06-21 08:00:00 17.9 12 Noroeste 23 Noroeste 0 -- -- 89
2019-06-21 07:00:00 17.7 11 Noroeste 23 Noroeste 0 -- -- 88
2019-06-21 06:00:00 17.6 13 Noroeste 26 Noroeste 0 -- -- 89
2019-06-21 05:00:00 18 13 Noroeste 26 Oeste 0 -- -- 86
2019-06-21 04:00:00 18.2 10 Noroeste 23 Noroeste 0 -- -- 85
2019-06-21 03:00:00 18.1 10 Noroeste 25 Noroeste 0 -- -- 85
2019-06-21 02:00:00 18.2 13 Noroeste 27 Noroeste 0 -- -- 83
2019-06-21 01:00:00 18.5 13 Noroeste 29 Noroeste 0 -- -- 84
2019-06-21 00:00:00 18.5 12 Noroeste 27 Noroeste 0 -- -- 85
2019-06-20 23:00:00 18.6 13 Noroeste 28 Noroeste 0 -- -- 85
2019-06-20 22:00:00 18.8 16 Noroeste 30 Noroeste 0 -- -- 85
2019-06-20 21:00:00 19.1 15 Noroeste 30 Noroeste 0 -- -- 85
2019-06-20 20:00:00 19.4 21 Noroeste 32 Noroeste 0 -- -- 85
2019-06-20 19:00:00 20.6 15 Noroeste 35 Noroeste 0 -- -- 79
2019-06-20 18:00:00 21.1 18 Noroeste 35 Noroeste 0 -- -- 77
2019-06-20 17:00:00 22 17 Noroeste 35 Noroeste 0 -- -- 72
2019-06-20 16:00:00 22.3 17 Noroeste 28 Noroeste 0 -- -- 70
2019-06-20 15:00:00 22.5 16 Noroeste 33 Noroeste 0 -- -- 65
2019-06-20 14:00:00 22.5 15 Noroeste 27 Noroeste 0 -- -- 64
2019-06-20 13:00:00 22.2 14 Noroeste 25 Noroeste 0 -- -- 69
2019-06-20 12:00:00 21.3 13 Noroeste 26 Oeste 0 -- -- 72
2019-06-20 11:00:00 20.5 14 Noroeste 28 Noroeste 0 -- -- 78
2019-06-20 10:00:00 20.5 13 Noroeste 25 Noroeste 0 -- -- 80
2019-06-20 09:00:00 19.4 11 Noroeste 23 Oeste 0 -- -- 85
2019-06-20 08:00:00 18.6 12 Noroeste 21 Noroeste 0 -- -- 87
2019-06-20 07:00:00 18.2 10 Oeste 22 Oeste 0 -- -- 86
2019-06-20 06:00:00 18.1 10 Noroeste 23 Noroeste 0 -- -- 86
2019-06-20 05:00:00 18.1 10 Noroeste 22 Noroeste 0 -- -- 88
2019-06-20 04:00:00 18.1 12 Noroeste 23 Noroeste 0 -- -- 90
2019-06-20 03:00:00 18.2 12 Noroeste 27 Noroeste 0 -- -- 89
2019-06-20 02:00:00 18.4 12 Noroeste 24 Noroeste 0 -- -- 89
2019-06-20 01:00:00 18.8 11 Noroeste 27 Noroeste 0 -- -- 88
2019-06-20 00:00:00 19 13 Noroeste 28 Oeste 0 -- -- 84
2019-06-19 23:00:00 19.1 12 Noroeste 22 Noroeste 0 -- -- 84
2019-06-19 22:00:00 19.3 10 Noroeste 21 Noroeste 0 -- -- 81
2019-06-19 21:00:00 19.7 13 Noroeste 24 Noroeste 0 -- -- 77
2019-06-19 20:00:00 20.6 13 Noroeste 25 Noroeste 0 -- -- 74
2019-06-19 19:00:00 21.3 15 Noroeste 27 Noroeste 0 -- -- 72
2019-06-19 18:00:00 21.7 15 Noroeste 33 Noroeste 0 -- -- 71
2019-06-19 17:00:00 22.5 15 Noroeste 29 Noroeste 0 -- -- 67
2019-06-19 16:00:00 22.1 18 Noroeste 30 Noroeste 0 -- -- 66
2019-06-19 15:00:00 22.4 14 Noroeste 30 Norte 0 -- -- 69
2019-06-19 14:00:00 22.3 15 Noroeste -- -- -- -- -- 70
2019-06-19 13:00:00 -- -- -- -- -- -- -- -- --
2019-06-19 12:00:00 -- -- -- -- -- -- -- -- --
2019-06-19 11:00:00 -- -- -- -- -- -- -- -- --
2019-06-19 10:00:00 -- -- -- -- -- -- -- -- --
2019-06-19 09:00:00 -- -- -- -- -- -- -- -- --
2019-06-19 08:00:00 -- -- -- -- -- -- -- -- --
2019-06-19 07:00:00 -- -- -- -- -- -- -- -- --
2019-06-19 06:00:00 -- -- -- -- -- -- -- -- --
2019-06-19 05:00:00 -- -- -- -- -- -- -- -- --
2019-06-19 04:00:00 -- -- -- -- -- -- -- -- --
2019-06-19 03:00:00 -- -- -- -- -- -- -- -- --
2019-06-19 02:00:00 -- -- -- -- -- -- -- -- --
2019-06-19 01:00:00 -- -- -- -- -- -- -- -- --
2019-06-19 00:00:00 -- -- -- -- -- -- -- -- --
2019-06-18 23:00:00 -- -- -- -- -- -- -- -- --
2019-06-18 22:00:00 -- -- -- -- -- -- -- -- --
2019-06-18 21:00:00 -- -- -- -- -- -- -- -- --
2019-06-18 20:00:00 -- -- -- -- -- -- -- -- --
2019-06-18 19:00:00 -- -- -- -- -- -- -- -- --
2019-06-18 18:00:00 21 5 Norte 17 Nordeste 0 -- -- 81
2019-06-18 17:00:00 21.1 4 Este 14 Nordeste 0 -- -- 82
2019-06-18 16:00:00 21.8 8 Este 17 Sudeste 0 -- -- 78
2019-06-18 15:00:00 23.3 7 Norte 19 Norte 0 -- -- 68
2019-06-18 14:00:00 22.9 9 Norte 20 Norte 0 -- -- 72
2019-06-18 13:00:00 22.8 9 Noroeste 23 Norte 0 -- -- 72
2019-06-18 12:00:00 23.7 14 Norte 24 Noroeste 0 -- -- 67
2019-06-18 11:00:00 22.5 12 Norte 22 Norte 0 -- -- 71
2019-06-18 10:00:00 21.1 8 Noroeste 16 Noroeste 0 -- -- 78
2019-06-18 09:00:00 19.9 7 Noroeste 14 Noroeste 0 -- -- 82
2019-06-18 08:00:00 18.2 4 Oeste 6 Oeste 0 -- -- 82
2019-06-18 07:00:00 16.9 4 Sudoeste 6 Oeste 0 -- -- 81
2019-06-18 06:00:00 16.9 3 Sudoeste 10 Sur 0 -- -- 77
2019-06-18 05:00:00 16.8 4 Sudoeste 10 Sur 0 -- -- 78
2019-06-18 04:00:00 16.9 6 Sur 8 Sur 0 -- -- 80
2019-06-18 03:00:00 17.3 3 Sudoeste 5 Sudoeste 0 -- -- 82
2019-06-18 02:00:00 17.4 3 Sudoeste 5 Oeste 0 -- -- 79
2019-06-18 01:00:00 17.8 0 Calma 5 Sur 0 -- -- 77
2019-06-18 00:00:00 18.3 0 Calma 5 Noroeste 0 -- -- 76
2019-06-17 23:00:00 18.6 2 Noroeste 4 Oeste 0 -- -- 75
2019-06-17 22:00:00 19.6 0 Calma 6 Sur 0 -- -- 74
2019-06-17 21:00:00 20.5 3 Nordeste 10 Nordeste 0 -- -- 70
2019-06-17 20:00:00 21.6 5 Nordeste 12 Nordeste 0 -- -- 65
2019-06-17 19:00:00 21.9 5 Norte 15 Norte 0 -- -- 60
2019-06-17 18:00:00 22.2 5 Nordeste 14 Este 0 -- -- 64
2019-06-17 17:00:00 22.7 6 Norte 17 Nordeste 0 -- -- 61
2019-06-17 16:00:00 23.1 7 Este 17 Nordeste 0 -- -- 60
2019-06-17 15:00:00 22.7 8 Nordeste 18 Este 0 -- -- 62
2019-06-17 14:00:00 22 8 Nordeste 18 Norte 0 -- -- 65
2019-06-17 13:00:00 22.4 7 Norte 17 Este 0 -- -- 63
2019-06-17 12:00:00 21.4 7 Nordeste 17 Este 0 -- -- 65
2019-06-17 11:00:00 21.1 7 Nordeste 14 Nordeste 0 -- -- 69
2019-06-17 10:00:00 19.9 3 Norte 10 Oeste 0 -- -- 71
2019-06-17 09:00:00 17.9 4 Noroeste 7 Noroeste 0 -- -- 79
2019-06-17 08:00:00 15.8 4 Sur 10 Sur 0 -- -- 82
2019-06-17 07:00:00 14.3 4 Sudoeste 13 Sur 0 -- -- 82
2019-06-17 06:00:00 14.5 8 Sur 13 Sur 0 -- -- 85
2019-06-17 05:00:00 14.8 5 Sudoeste 8 Sudoeste 0 -- -- 87
2019-06-17 04:00:00 15 4 Sudoeste 8 Sudoeste 0 -- -- 86
2019-06-17 03:00:00 15 4 Oeste 8 Sudoeste 0 -- -- 83
2019-06-17 02:00:00 15.4 4 Sudoeste 8 Sudoeste 0 -- -- 82
2019-06-17 01:00:00 15.5 3 Sudoeste 10 Sudoeste 0 -- -- 82
2019-06-17 00:00:00 15.7 4 Oeste 8 Sudoeste 0 -- -- 83
2019-06-16 23:00:00 16.5 4 Sudoeste 9 Noroeste 0 -- -- 83
2019-06-16 22:00:00 17 5 Noroeste 11 Noroeste 0 -- -- 82
2019-06-16 21:00:00 17.8 7 Noroeste 13 Noroeste 0 -- -- 77
2019-06-16 20:00:00 19.2 6 Norte 18 Norte 0 -- -- 72
2019-06-16 19:00:00 19.6 9 Noroeste 18 Norte 0 -- -- 71
2019-06-16 18:00:00 19.8 8 Nordeste 19 Nordeste 0 -- -- 70
2019-06-16 17:00:00 20.4 6 Norte 18 Nordeste 0 -- -- 69
2019-06-16 16:00:00 19.7 8 Nordeste 18 Nordeste 0 -- -- 68
2019-06-16 15:00:00 19.8 8 Nordeste 16 Nordeste 0 -- -- 67
2019-06-16 14:00:00 19.2 8 Nordeste 16 Este 0 -- -- 72
2019-06-16 13:00:00 19.1 8 Nordeste 17 Nordeste 0 -- -- 71
2019-06-16 12:00:00 19 5 Nordeste 18 Nordeste 0 -- -- 74
2019-06-16 11:00:00 19.3 10 Nordeste 19 Nordeste 0 -- -- 72
2019-06-16 10:00:00 17.5 6 Noroeste 10 Noroeste 0 -- -- 80
2019-06-16 09:00:00 15.8 2 Oeste 9 Sur 0 -- -- 79
2019-06-16 08:00:00 14.3 7 Sur 10 Sur 0 -- -- 77
2019-06-16 07:00:00 14.3 5 Sudoeste 9 Sur 0 -- -- 84
2019-06-16 06:00:00 14.2 5 Sudoeste 13 Sur 0 -- -- 79
2019-06-16 05:00:00 14.9 7 Sur 12 Sur 0 -- -- 76
2019-06-16 04:00:00 15.7 5 Sur 11 Sudoeste 0 -- -- 77
2019-06-16 03:00:00 16.5 3 Sudoeste 5 Oeste 0 -- -- 82
2019-06-16 02:00:00 17 2 Norte 8 Nordeste 0 -- -- 79
2019-06-16 01:00:00 17.2 3 Nordeste 9 Nordeste 0 -- -- 78
2019-06-16 00:00:00 17.3 3 Nordeste 12 Nordeste 0 -- -- 77
2019-06-15 23:00:00 17.2 5 Norte 14 Noroeste 0 -- -- 77
2019-06-15 22:00:00 17.2 6 Noroeste 18 Noroeste 0 -- -- 78
2019-06-15 21:00:00 17.6 6 Norte 15 Norte 0 -- -- 75
2019-06-15 20:00:00 17.8 8 Noroeste 17 Norte 0 -- -- 73
2019-06-15 19:00:00 18 7 Noroeste 18 Noroeste 0 -- -- 74
2019-06-15 18:00:00 18.6 6 Norte 15 Nordeste 0 -- -- 70
2019-06-15 17:00:00 18.5 4 Norte 15 Este 0 -- -- 71
2019-06-15 16:00:00 18.4 5 Nordeste 14 Nordeste 0 -- -- 70
2019-06-15 15:00:00 18.4 8 Nordeste 19 Nordeste 0 -- -- 70
2019-06-15 14:00:00 18.8 7 Nordeste 18 Nordeste 0 -- -- 71
2019-06-15 13:00:00 19.5 11 Nordeste 25 Nordeste 0 -- -- 67
2019-06-15 12:00:00 20.3 10 Nordeste 21 Nordeste 0 -- -- 61
2019-06-15 11:00:00 20.6 9 Nordeste 17 Este 0 -- -- 57
2019-06-15 10:00:00 19.3 4 Noroeste 13 Nordeste 0 -- -- 59
2019-06-15 09:00:00 18.2 6 Nordeste 15 Nordeste 0 -- -- 66
2019-06-15 08:00:00 17 6 Nordeste 14 Nordeste 0 -- -- 71
2019-06-15 07:00:00 16.2 3 Este 10 Este 0 -- -- 81
2019-06-15 06:00:00 15.9 2 Oeste 8 Sur 0 -- -- 81
2019-06-15 05:00:00 15.6 6 Sur 11 Sudoeste 0 -- -- 79
2019-06-15 04:00:00 15.2 4 Sudoeste 7 Sur 0 -- -- 81
2019-06-15 03:00:00 15.6 3 Oeste 7 Oeste 0 -- -- 80
2019-06-15 02:00:00 15.8 4 Sudoeste 10 Sudoeste 0 -- -- 79
2019-06-15 01:00:00 15.7 3 Sudoeste 7 Oeste 0 -- -- 81
2019-06-15 00:00:00 15.7 2 Sudoeste 7 Sudoeste 0 -- -- 81
2019-06-14 23:00:00 16.3 2 Norte 9 Nordeste 0 -- -- 77
2019-06-14 22:00:00 17.2 5 Nordeste 14 Noroeste 0 -- -- 75
2019-06-14 21:00:00 17.6 4 Norte 18 Noroeste 0 -- -- 75
2019-06-14 20:00:00 17.9 8 Noroeste 21 Noroeste 0 -- -- 73
2019-06-14 19:00:00 18.9 11 Noroeste 20 Noroeste 0 -- -- 68
2019-06-14 18:00:00 19.6 7 Norte 20 Nordeste 0 -- -- 60
2019-06-14 17:00:00 19.1 6 Norte 17 Noroeste 0 -- -- 63
2019-06-14 16:00:00 18.6 6 Nordeste 19 Nordeste 0 -- -- 66
2019-06-14 15:00:00 18.5 6 Nordeste 18 Noroeste 0 -- -- 72
2019-06-14 14:00:00 19.4 10 Noroeste 20 Noroeste 0 -- -- 70
2019-06-14 13:00:00 19.1 10 Noroeste 22 Noroeste 0 -- -- 72
2019-06-14 12:00:00 18.1 11 Noroeste 20 Noroeste 0 -- -- 73
2019-06-14 11:00:00 17.5 5 Norte 15 Noroeste 0 -- -- 78
2019-06-14 10:00:00 17.8 8 Norte 17 Noroeste 0 -- -- 74
2019-06-14 09:00:00 16.4 6 Oeste 12 Oeste 0 -- -- 81
2019-06-14 08:00:00 15.2 2 Sudoeste 8 Sudoeste 0 -- -- 81
2019-06-14 07:00:00 14.8 4 Sudoeste 10 Sudoeste 0 -- -- 83
2019-06-14 06:00:00 15 4 Sudoeste 8 Sudoeste 0 -- -- 81
2019-06-14 05:00:00 15.5 3 Sudoeste 8 Sudoeste 0 -- -- 75
2019-06-14 04:00:00 15.8 3 Sur 8 Sudoeste 0 -- -- 77
2019-06-14 03:00:00 15.6 2 Sudeste 7 Oeste 0 -- -- 83
2019-06-14 02:00:00 15.8 3 Oeste 11 Noroeste 0 -- -- 82
2019-06-14 01:00:00 16.4 6 Noroeste 13 Noroeste 0 -- -- 80
2019-06-14 00:00:00 16.7 7 Noroeste 15 Noroeste 0 -- -- 80
2019-06-13 23:00:00 16.8 8 Noroeste 15 Oeste 0 -- -- 80
2019-06-13 22:00:00 17.2 9 Noroeste 19 Noroeste 0 -- -- 78
2019-06-13 21:00:00 17.2 13 Noroeste 25 Noroeste 0 -- -- 79
2019-06-13 20:00:00 18.2 16 Noroeste 28 Norte 0 -- -- 74
2019-06-13 19:00:00 19 14 Noroeste 30 Noroeste 0 -- -- 65
2019-06-13 18:00:00 19.4 14 Noroeste 28 Noroeste 0 -- -- 68
2019-06-13 17:00:00 20.1 15 Noroeste 34 Noroeste 0 -- -- 63
2019-06-13 16:00:00 20.5 17 Noroeste 33 Noroeste 0 -- -- 62
2019-06-13 15:00:00 21 18 Noroeste 36 Noroeste 0 -- -- 56
2019-06-13 14:00:00 20.7 17 Noroeste 32 Noroeste 0 -- -- 57
2019-06-13 13:00:00 20.3 15 Noroeste 34 Norte 0 -- -- 59
2019-06-13 12:00:00 19.8 16 Noroeste 29 Noroeste 0 -- -- 66
2019-06-13 11:00:00 19.3 14 Noroeste 31 Noroeste 0 -- -- 67
2019-06-13 10:00:00 18 13 Noroeste 24 Noroeste 0 -- -- 72
2019-06-13 09:00:00 17.2 12 Noroeste 30 Noroeste 0 -- -- 74
2019-06-13 08:00:00 16.9 15 Noroeste 31 Noroeste 0 -- -- 75
2019-06-13 07:00:00 16.5 16 Noroeste 31 Noroeste 0 -- -- 74
2019-06-13 06:00:00 16 10 Noroeste 33 Noroeste 0 -- -- 82
2019-06-13 05:00:00 16.4 12 Noroeste 25 Noroeste 0 -- -- 82
2019-06-13 04:00:00 16.1 11 Noroeste 30 Oeste 0 -- -- 85
2019-06-13 03:00:00 16.6 10 Noroeste 24 Oeste 0 -- -- 76
2019-06-13 02:00:00 16.4 15 Noroeste 32 Noroeste 0 -- -- 74
2019-06-13 01:00:00 16.7 17 Noroeste 30 Noroeste 0 -- -- 78
2019-06-13 00:00:00 16.6 13 Noroeste 31 Noroeste 0 -- -- 78
2019-06-12 23:00:00 16.8 14 Noroeste 31 Noroeste 0 -- -- 82
2019-06-12 22:00:00 17.1 16 Noroeste 33 Noroeste 0 -- -- 80
2019-06-12 21:00:00 17.2 15 Noroeste 37 Noroeste 0 -- -- 80
2019-06-12 20:00:00 17.5 21 Noroeste 33 Noroeste 0 -- -- 80
2019-06-12 19:00:00 18.2 16 Noroeste 36 Noroeste 0 -- -- 82
2019-06-12 18:00:00 18.4 21 Noroeste 37 Noroeste 0 -- -- 82
2019-06-12 17:00:00 19.4 21 Noroeste 38 Noroeste 0 -- -- 75
2019-06-12 16:00:00 20.6 20 Noroeste 32 Noroeste 0 -- -- 61
2019-06-12 15:00:00 20.5 16 Noroeste 35 Noroeste 0 -- -- 65
2019-06-12 14:00:00 19.4 18 Noroeste 30 Noroeste 0 -- -- 76
2019-06-12 13:00:00 18.3 13 Noroeste 33 Norte 0 -- -- 81
2019-06-12 12:00:00 17.3 20 Noroeste 33 Noroeste 0 -- -- 85
2019-06-12 11:00:00 17.6 19 Noroeste 35 Noroeste 0 -- -- 85
2019-06-12 10:00:00 16.5 14 Noroeste 32 Noroeste 0 -- -- 96
2019-06-12 09:00:00 16.3 17 Noroeste 30 Noroeste 0 -- -- 97
2019-06-12 08:00:00 17 12 Noroeste 29 Noroeste 0 -- -- 93
2019-06-12 07:00:00 16.4 10 Noroeste 31 Oeste 0 -- -- 94
2019-06-12 06:00:00 16.4 9 Noroeste 37 Noroeste 0 -- -- 95
2019-06-12 05:00:00 16.7 10 Oeste 22 Norte 0 -- -- 96
2019-06-12 04:00:00 16.5 17 Noroeste 30 Noroeste 0 -- -- 95
2019-06-12 03:00:00 16.8 13 Noroeste 36 Noroeste 0 -- -- 95
2019-06-12 02:00:00 16.8 10 Noroeste 27 Noroeste 0 -- -- 92
2019-06-12 01:00:00 17.2 12 Noroeste 35 Noroeste 0 -- -- 90
2019-06-12 00:00:00 17.6 15 Noroeste 33 Noroeste 0 -- -- 85
2019-06-11 23:00:00 17.7 17 Noroeste 36 Noroeste 0 -- -- 88
2019-06-11 22:00:00 17.9 16 Noroeste 28 Oeste 0 -- -- 85
2019-06-11 21:00:00 17.9 13 Noroeste 30 Noroeste 0 -- -- 81
2019-06-11 20:00:00 18.1 15 Noroeste 30 Noroeste 0 -- -- 82
2019-06-11 19:00:00 18.3 16 Noroeste 39 Noroeste 0 -- -- 83
2019-06-11 18:00:00 17.9 18 Noroeste 37 Noroeste 0 -- -- 90
2019-06-11 17:00:00 19 17 Noroeste 36 Noroeste 0 -- -- 81
2019-06-11 16:00:00 19 16 Noroeste 34 Norte 0 -- -- 79
2019-06-11 15:00:00 19.4 14 Noroeste 35 Noroeste 0 -- -- 77
2019-06-11 14:00:00 18.8 15 Noroeste 31 Norte 0 -- -- 85
2019-06-11 13:00:00 18.1 21 Noroeste 32 Noroeste 0 -- -- 87
2019-06-11 12:00:00 17.7 17 Noroeste 36 Noroeste 0 -- -- 85
2019-06-11 11:00:00 17.5 15 Noroeste 30 Noroeste 0 -- -- 85
2019-06-11 10:00:00 17.6 14 Noroeste 33 Noroeste 0 -- -- 79
2019-06-11 09:00:00 17 23 Noroeste 35 Noroeste 0 -- -- 78
2019-06-11 08:00:00 16.9 17 Noroeste 33 Noroeste 0 -- -- 80
2019-06-11 07:00:00 16.7 15 Noroeste 34 Noroeste 0 -- -- 81
2019-06-11 06:00:00 16.8 17 Noroeste 35 Noroeste 0 -- -- 83
2019-06-11 05:00:00 16.6 17 Noroeste 33 Noroeste 0 -- -- 81
2019-06-11 04:00:00 16.9 18 Noroeste 32 Noroeste 0 -- -- 77
2019-06-11 03:00:00 16.7 18 Noroeste 35 Noroeste 0 -- -- 82
2019-06-11 02:00:00 16.9 21 Noroeste 33 Noroeste 0 -- -- 84
2019-06-11 01:00:00 17.1 19 Noroeste 35 Noroeste 0 -- -- 84
2019-06-11 00:00:00 17.1 18 Noroeste 32 Noroeste 0 -- -- 82
2019-06-10 23:00:00 17.2 19 Noroeste 29 Noroeste 0 -- -- 84
2019-06-10 22:00:00 17.5 17 Noroeste 32 Noroeste 0 -- -- 83
2019-06-10 21:00:00 17.4 16 Noroeste 30 Noroeste 0 -- -- 82
2019-06-10 20:00:00 17.6 15 Noroeste 33 Noroeste 0 -- -- 85
2019-06-10 19:00:00 18.5 17 Noroeste 33 Noroeste 0 -- -- 78
2019-06-10 18:00:00 19.2 17 Noroeste 33 Oeste 0 -- -- 74
2019-06-10 17:00:00 19.7 18 Noroeste 33 Norte 0 -- -- 69
2019-06-10 16:00:00 19.4 16 Noroeste 36 Noroeste 0 -- -- 76
2019-06-10 15:00:00 20 17 Noroeste 39 Noroeste 0 -- -- 70
2019-06-10 14:00:00 20.1 20 Noroeste 37 Noroeste 0 -- -- 68
2019-06-10 13:00:00 19.1 19 Noroeste 36 Noroeste 0 -- -- 76
2019-06-10 12:00:00 19.8 14 Norte 34 Noroeste 0 -- -- 73
2019-06-10 11:00:00 18.1 11 Noroeste 24 Noroeste 0 -- -- 78
2019-06-10 10:00:00 17.7 13 Noroeste 23 Norte 0 -- -- 76
2019-06-10 09:00:00 17.3 12 Noroeste 27 Noroeste 0 -- -- 76
2019-06-10 08:00:00 17 13 Noroeste 27 Norte 0 -- -- 80
2019-06-10 07:00:00 16.8 13 Noroeste 26 Noroeste 0 -- -- 80
2019-06-10 06:00:00 16.8 14 Noroeste 24 Noroeste 0 -- -- 79
2019-06-10 05:00:00 16.8 12 Noroeste 23 Noroeste 0 -- -- 78
2019-06-10 04:00:00 16.9 13 Noroeste 25 Noroeste 0 -- -- 78
2019-06-10 03:00:00 17 12 Noroeste 25 Noroeste 0 -- -- 77
2019-06-10 02:00:00 17.2 10 Noroeste 21 Noroeste 0 -- -- 77
2019-06-10 01:00:00 17.4 12 Noroeste 24 Noroeste 0 -- -- 75
2019-06-10 00:00:00 17.5 10 Noroeste 28 Noroeste 0 -- -- 75
2019-06-09 23:00:00 17.6 10 Noroeste 28 Oeste 0 -- -- 80
2019-06-09 22:00:00 17.5 12 Noroeste 23 Noroeste 0 -- -- 76
2019-06-09 21:00:00 17.5 12 Noroeste 27 Noroeste 0 -- -- 73
2019-06-09 20:00:00 17.7 13 Noroeste 27 Noroeste 0 -- -- 71
2019-06-09 19:00:00 18.1 17 Noroeste 31 Noroeste 0 -- -- 72
2019-06-09 18:00:00 18.6 16 Noroeste 32 Noroeste 0 -- -- 69
2019-06-09 17:00:00 19.5 14 Noroeste 31 Noroeste 0 -- -- 65
2019-06-09 16:00:00 19.8 15 Noroeste 30 Noroeste 0 -- -- 64
2019-06-09 15:00:00 19.7 15 Noroeste 31 Noroeste 0 -- -- 62
2019-06-09 14:00:00 19.8 14 Norte 27 Norte 0 -- -- 58
2019-06-09 13:00:00 19.1 13 Norte 24 Norte 0 -- -- 65
2019-06-09 12:00:00 18.6 12 Norte 28 Norte 0 -- -- 61
2019-06-09 11:00:00 18.7 12 Nordeste 27 Nordeste 0 -- -- 64
2019-06-09 10:00:00 17.2 12 Noroeste 22 Norte 0 -- -- 76
2019-06-09 09:00:00 17.1 9 Noroeste 18 Noroeste 0 -- -- 72
2019-06-09 08:00:00 17 7 Norte 17 Noroeste 0 -- -- 67
2019-06-09 07:00:00 16.7 9 Noroeste 17 Norte 0 -- -- 74
2019-06-09 06:00:00 16.8 8 Norte 26 Noroeste 0 -- -- 68
2019-06-09 05:00:00 16.9 10 Norte 19 Norte 0 -- -- 76
2019-06-09 04:00:00 16.8 9 Noroeste 19 Noroeste 0 -- -- 76
2019-06-09 03:00:00 16.6 12 Noroeste 22 Noroeste 0 -- -- 76
2019-06-09 02:00:00 16.6 12 Noroeste 22 Noroeste 0 -- -- 71
2019-06-09 01:00:00 16.9 13 Noroeste 26 Noroeste 0 -- -- 77
2019-06-09 00:00:00 17 12 Noroeste 24 Noroeste 0 -- -- 76
2019-06-08 23:00:00 17.1 13 Noroeste 25 Noroeste 0 -- -- 75
2019-06-08 22:00:00 17.5 12 Noroeste 27 Noroeste 0 -- -- 76
2019-06-08 21:00:00 17.7 13 Noroeste 28 Noroeste 0 -- -- 73
2019-06-08 20:00:00 18 15 Norte 27 Noroeste 0 -- -- 75
2019-06-08 19:00:00 18.6 14 Noroeste 30 Noroeste 0 -- -- 76
2019-06-08 18:00:00 18.9 19 Noroeste 32 Noroeste 0 -- -- 71
2019-06-08 17:00:00 19.5 18 Noroeste 28 Noroeste 0 -- -- 70
2019-06-08 16:00:00 20.7 13 Noroeste 25 Norte 0 -- -- 68
2019-06-08 15:00:00 19.4 15 Noroeste 29 Noroeste 0 -- -- 74
2019-06-08 14:00:00 19.6 12 Norte 23 Norte 0 -- -- 75
2019-06-08 13:00:00 19.7 13 Noroeste 27 Noroeste 0 -- -- 78
2019-06-08 12:00:00 19.5 13 Noroeste 27 Noroeste 0 -- -- 77
2019-06-08 11:00:00 19.6 12 Norte 22 Noroeste 0 -- -- 77
2019-06-08 10:00:00 18.3 8 Noroeste 22 Noroeste 0 -- -- 86
2019-06-08 09:00:00 17.8 7 Norte 18 Norte 0 -- -- 91
2019-06-08 08:00:00 17.7 6 Noroeste 13 Noroeste 0 -- -- 91
2019-06-08 07:00:00 17.6 6 Noroeste 14 Noroeste 0 -- -- 91
2019-06-08 06:00:00 17.6 4 Norte 17 Norte 0 -- -- 90
2019-06-08 05:00:00 17.8 4 Nordeste 10 Nordeste 0 -- -- 91
2019-06-08 04:00:00 17.8 5 Norte 16 Noroeste 0 -- -- 93
2019-06-08 03:00:00 17.7 7 Noroeste 18 Noroeste 0 -- -- 93
2019-06-08 02:00:00 18 10 Noroeste 24 Noroeste 0 -- -- 92
2019-06-08 01:00:00 18.4 10 Noroeste 24 Oeste 0 -- -- 85
2019-06-08 00:00:00 18.2 12 Oeste 22 Oeste 0 -- -- 82
2019-06-07 23:00:00 18 9 Oeste 21 Noroeste 0 -- -- 87
2019-06-07 22:00:00 18.1 11 Noroeste 26 Noroeste 0 -- -- 88
2019-06-07 21:00:00 18.4 8 Noroeste 17 Noroeste 0 -- -- 80
2019-06-07 20:00:00 19.1 10 Noroeste 18 Noroeste 0 -- -- 79
2019-06-07 19:00:00 19.1 13 Noroeste 24 Noroeste 0 -- -- 79
2019-06-07 18:00:00 20.3 10 Noroeste 24 Noroeste 0 -- -- 73
2019-06-07 17:00:00 20.9 12 Noroeste 26 Norte 0 -- -- 68
2019-06-07 16:00:00 20.7 13 Norte 24 Noroeste 0 -- -- 67
2019-06-07 15:00:00 20.2 8 Norte 22 Norte 0 -- -- 73
2019-06-07 14:00:00 19.6 9 Noroeste 22 Norte 0 -- -- 73
2019-06-07 13:00:00 19.4 9 Noroeste 23 Norte 0 -- -- 74
2019-06-07 12:00:00 19.7 9 Noroeste 21 Norte 0 -- -- 70
2019-06-07 11:00:00 17.8 14 Noroeste 25 Noroeste 0 -- -- 78
2019-06-07 10:00:00 17.7 9 Noroeste 22 Noroeste 0 -- -- 77
2019-06-07 09:00:00 16.9 11 Noroeste 25 Noroeste 0 -- -- 82
2019-06-07 08:00:00 16.6 10 Noroeste 24 Noroeste 0 -- -- 82
2019-06-07 07:00:00 16.3 9 Noroeste 21 Noroeste 0 -- -- 85
2019-06-07 06:00:00 16.2 10 Noroeste 22 Noroeste 0 -- -- 84
2019-06-07 05:00:00 16.4 10 Noroeste 21 Oeste 0 -- -- 80
2019-06-07 04:00:00 16.5 11 Noroeste 30 Noroeste 0 -- -- 78
2019-06-07 03:00:00 16.7 15 Noroeste 29 Noroeste 0 -- -- 76
2019-06-07 02:00:00 16.7 16 Noroeste 33 Norte 0 -- -- 78
2019-06-07 01:00:00 16.9 13 Noroeste 23 Noroeste 0 -- -- 81
2019-06-07 00:00:00 16.7 13 Noroeste 24 Noroeste 0 -- -- 79
2019-06-06 23:00:00 16.8 13 Noroeste 24 Noroeste 0 -- -- 76
2019-06-06 22:00:00 17.1 14 Noroeste 30 Noroeste 0 -- -- 75
2019-06-06 21:00:00 17.1 14 Noroeste 27 Noroeste 0 -- -- 76
2019-06-06 20:00:00 17.5 18 Noroeste 31 Noroeste 0 -- -- 73
2019-06-06 19:00:00 18.4 16 Noroeste 32 Noroeste 0 -- -- 66
2019-06-06 18:00:00 18.9 14 Noroeste 27 Norte 0 -- -- 66
2019-06-06 17:00:00 18.9 17 Norte 37 Noroeste 0 -- -- 68
2019-06-06 16:00:00 18.4 19 Noroeste 32 Noroeste 0 -- -- 71
2019-06-06 15:00:00 19.1 17 Noroeste 34 Noroeste 0 -- -- 67
2019-06-06 14:00:00 19.5 17 Noroeste 35 Noroeste 0 -- -- 70
2019-06-06 13:00:00 19.9 18 Noroeste 35 Noroeste 0 -- -- 64
2019-06-06 12:00:00 19.4 15 Noroeste 28 Noroeste 0 -- -- 61
2019-06-06 11:00:00 17.5 15 Noroeste 24 Noroeste 0 -- -- 73
2019-06-06 10:00:00 17.3 11 Noroeste 22 Noroeste 0 -- -- 76
2019-06-06 09:00:00 17.6 9 Noroeste 19 Norte 0 -- -- 66
2019-06-06 08:00:00 16.9 11 Norte 22 Norte 0 -- -- 69
2019-06-06 07:00:00 16.7 9 Noroeste 20 Noroeste 0 -- -- 78
2019-06-06 06:00:00 16.7 10 Noroeste 23 Noroeste 0 -- -- 76
2019-06-06 05:00:00 16.7 11 Norte 21 Noroeste 0 -- -- 79
2019-06-06 04:00:00 16.8 14 Noroeste 23 Noroeste 0 -- -- 80
2019-06-06 03:00:00 17 9 Norte 24 Norte 0 -- -- 81
2019-06-06 02:00:00 17.1 10 Noroeste 23 Noroeste 0 -- -- 81
2019-06-06 01:00:00 17.1 13 Norte 26 Noroeste 0 -- -- 82
2019-06-06 00:00:00 17.4 8 Norte 23 Noroeste 0 -- -- 86
2019-06-05 23:00:00 17.5 13 Noroeste 24 Noroeste 0 -- -- 87
2019-06-05 22:00:00 17.7 11 Noroeste 27 Noroeste -- -- -- 92
2019-06-05 21:00:00 17.7 17 Noroeste 29 Noroeste 0 -- -- 92
2019-06-05 20:00:00 18.3 14 Noroeste 29 Norte 0 -- -- 87
2019-06-05 19:00:00 18.7 16 Noroeste 29 Noroeste 0 -- -- 85
2019-06-05 18:00:00 19.2 16 Noroeste 29 Noroeste 0 -- -- 81
2019-06-05 17:00:00 19.5 15 Noroeste 29 Norte 0 -- -- 80
2019-06-05 16:00:00 19.5 17 Noroeste 30 Noroeste 0 -- -- 82
2019-06-05 15:00:00 20.5 16 Noroeste 29 Noroeste 0 -- -- 77
2019-06-05 14:00:00 20.9 17 Noroeste 28 Noroeste 0 -- -- 74
2019-06-05 13:00:00 20.7 14 Noroeste 27 Noroeste 0 -- -- 74
2019-06-05 12:00:00 19.7 13 Noroeste 27 Norte 0 -- -- 84
2019-06-05 11:00:00 18.4 13 Noroeste 24 Noroeste 0 -- -- 92
2019-06-05 10:00:00 19 12 Noroeste 22 Noroeste 0 -- -- 83
2019-06-05 09:00:00 18.6 9 Noroeste 18 Noroeste 0 -- -- 85
2019-06-05 08:00:00 17.9 7 Noroeste 23 Norte 0 -- -- 88
2019-06-05 07:00:00 17.7 8 Noroeste 20 Oeste 0 -- -- 91
2019-06-05 06:00:00 17.8 9 Noroeste 23 Noroeste 0 -- -- 91
2019-06-05 05:00:00 17.9 14 Noroeste 26 Noroeste 0 -- -- 90
2019-06-05 04:00:00 18.1 12 Noroeste 30 Noroeste 0 -- -- 88
2019-06-05 03:00:00 18.3 13 Noroeste 29 Oeste 0 -- -- 83
2019-06-05 02:00:00 18.1 14 Noroeste 27 Noroeste 0 -- -- 85
2019-06-05 01:00:00 18.1 13 Noroeste 28 Noroeste 0 -- -- 88
2019-06-05 00:00:00 17.9 12 Noroeste 30 Norte 0 -- -- 88
2019-06-04 23:00:00 18 15 Noroeste 30 Noroeste 0 -- -- 86
2019-06-04 22:00:00 17.9 14 Noroeste 32 Oeste 0 -- -- 86
2019-06-04 21:00:00 17.8 17 Noroeste 30 Noroeste 0 -- -- 85
2019-06-04 20:00:00 18.7 17 Noroeste 32 Noroeste 0 -- -- 82
2019-06-04 19:00:00 19.2 17 Noroeste 32 Noroeste 0 -- -- 84
2019-06-04 18:00:00 20.3 13 Noroeste 30 Oeste 0 -- -- 80
2019-06-04 17:00:00 21.2 16 Noroeste 27 Noroeste 0 -- -- 74
2019-06-04 16:00:00 21.8 14 Noroeste 24 Noroeste 0 -- -- 73
2019-06-04 15:00:00 22.5 13 Noroeste 23 Norte 0 -- -- 70
2019-06-04 14:00:00 22.9 12 Noroeste 24 Norte 0 -- -- 65
2019-06-04 13:00:00 23.5 12 Noroeste 23 Noroeste 0 -- -- 57
2019-06-04 12:00:00 23.6 10 Noroeste 21 Noroeste 0 -- -- 49
2019-06-04 11:00:00 22.6 9 Noroeste 21 Noroeste 0 -- -- 50
2019-06-04 10:00:00 21.7 8 Noroeste 20 Noroeste 0 -- -- 53
2019-06-04 09:00:00 20.5 10 Noroeste 22 Oeste 0 -- -- 57
2019-06-04 08:00:00 18.9 10 Oeste 21 Oeste 0 -- -- 61
2019-06-04 07:00:00 17.4 10 Oeste 21 Oeste 0 -- -- 66
2019-06-04 06:00:00 17.1 9 Noroeste 23 Noroeste 0 -- -- 95
2019-06-04 05:00:00 17.2 13 Noroeste 26 Noroeste 0 -- -- 95
2019-06-04 04:00:00 17.4 12 Noroeste 21 Noroeste 0 -- -- 92
2019-06-04 03:00:00 17.5 9 Noroeste 22 Oeste 0 -- -- 90
2019-06-04 02:00:00 17.9 10 Noroeste 21 Noroeste 0 -- -- 90
2019-06-04 01:00:00 18.1 12 Noroeste 25 Noroeste 0 -- -- 89
2019-06-04 00:00:00 18.3 13 Noroeste 28 Oeste 0 -- -- 88
2019-06-03 23:00:00 18.4 14 Oeste 26 Noroeste 0 -- -- 88
2019-06-03 22:00:00 18.6 14 Noroeste 24 Noroeste 0 -- -- 91
2019-06-03 21:00:00 19.7 10 Noroeste 20 Oeste 0 -- -- 86
2019-06-03 20:00:00 21.6 10 Noroeste 21 Noroeste 0 -- -- 78
2019-06-03 19:00:00 23.8 10 Noroeste 21 Noroeste 0 -- -- 69
2019-06-03 18:00:00 24.1 11 Noroeste 21 Noroeste 0 -- -- 69
2019-06-03 17:00:00 24 13 Noroeste 27 Noroeste 0 -- -- 69
2019-06-03 16:00:00 23.6 15 Noroeste 27 Noroeste 0 -- -- 72
2019-06-03 15:00:00 24 15 Noroeste 25 Noroeste 0 -- -- 65
2019-06-03 14:00:00 24.2 14 Noroeste 24 Noroeste 0 -- -- 62
2019-06-03 13:00:00 23.9 12 Noroeste 23 Noroeste 0 -- -- 63
2019-06-03 12:00:00 24.2 14 Noroeste 21 Noroeste 0 -- -- 61
2019-06-03 11:00:00 23.3 11 Noroeste 20 Noroeste 0 -- -- 68
2019-06-03 10:00:00 22.8 8 Noroeste 15 Noroeste 0 -- -- 68
2019-06-03 09:00:00 23.4 5 Oeste 12 Oeste 0 -- -- 38
2019-06-03 08:00:00 21.2 3 Oeste 13 Oeste 0 -- -- 35
2019-06-03 07:00:00 19.4 6 Sudoeste 13 Oeste 0 -- -- 45
2019-06-03 06:00:00 19.2 10 Oeste 19 Oeste 0 -- -- 60
2019-06-03 05:00:00 18.6 3 Oeste 16 Sudoeste 0 -- -- 71
2019-06-03 04:00:00 18.6 5 Oeste 18 Oeste 0 -- -- 73
2019-06-03 03:00:00 18.5 8 Oeste 22 Oeste 0 -- -- 82
2019-06-03 02:00:00 18.4 11 Noroeste 22 Oeste 0 -- -- 91
2019-06-03 01:00:00 19.2 9 Noroeste 23 Oeste 0 -- -- 80
2019-06-03 00:00:00 20.8 6 Noroeste 13 Oeste 0 -- -- 57
2019-06-02 23:00:00 21.2 7 Oeste 16 Noroeste 0 -- -- 57
2019-06-02 22:00:00 20.1 6 Oeste 17 Oeste 0 -- -- 77
2019-06-02 21:00:00 20.5 10 Oeste 19 Oeste 0 -- -- 77
2019-06-02 20:00:00 22.6 9 Noroeste 17 Noroeste 0 -- -- 64
2019-06-02 19:00:00 23.6 9 Noroeste 19 Oeste 0 -- -- 69
2019-06-02 18:00:00 24 9 Noroeste 23 Noroeste 0 -- -- 60
2019-06-02 17:00:00 22.9 12 Noroeste 24 Noroeste 0 -- -- 69
2019-06-02 16:00:00 22.6 14 Noroeste 30 Noroeste 0 -- -- 73
2019-06-02 15:00:00 23 13 Noroeste 27 Noroeste 0 -- -- 77
2019-06-02 14:00:00 22.8 12 Noroeste 22 Noroeste 0 -- -- 76
2019-06-02 13:00:00 22.3 13 Noroeste 22 Noroeste 0 -- -- 78
2019-06-02 12:00:00 22 9 Noroeste 20 Noroeste 0 -- -- 79
2019-06-02 11:00:00 20.3 11 Noroeste 20 Oeste 0 -- -- 84
2019-06-02 10:00:00 18.8 10 Noroeste 22 Noroeste 0 -- -- 93
2019-06-02 09:00:00 17.6 12 Oeste 23 Oeste 0 -- -- 97
2019-06-02 08:00:00 16.9 8 Oeste 22 Oeste 0 -- -- 95
2019-06-02 07:00:00 17.7 9 Oeste 15 Sudoeste 0 -- -- 63
2019-06-02 06:00:00 16.4 8 Oeste 14 Oeste 0 -- -- 78
2019-06-02 05:00:00 17.1 10 Oeste 15 Oeste 0 -- -- 88
2019-06-02 04:00:00 16.4 7 Oeste 20 Oeste 0 -- -- 94
2019-06-02 03:00:00 17 13 Oeste 19 Oeste 0 -- -- 95
2019-06-02 02:00:00 16.9 6 Oeste 17 Sudoeste 0 -- -- 93
2019-06-02 01:00:00 17.2 9 Oeste 20 Oeste 0 -- -- 92
2019-06-02 00:00:00 17.3 9 Oeste 20 Oeste 0 -- -- 91
2019-06-01 23:00:00 17.5 9 Oeste 21 Noroeste 0 -- -- 89
2019-06-01 22:00:00 17.6 12 Noroeste 28 Oeste 0 -- -- 88
2019-06-01 21:00:00 18.2 13 Noroeste 27 Noroeste 0 -- -- 88
2019-06-01 20:00:00 18.7 14 Noroeste 30 Noroeste 0 -- -- 86
2019-06-01 19:00:00 19.5 17 Noroeste 35 Noroeste 0 -- -- 84
2019-06-01 18:00:00 20.4 17 Noroeste 31 Noroeste 0 -- -- 80
2019-06-01 17:00:00 20.6 17 Noroeste 42 Norte 0 -- -- 79
2019-06-01 16:00:00 21.2 17 Noroeste 34 Noroeste 0 -- -- 77
2019-06-01 15:00:00 21.4 17 Noroeste 30 Noroeste 0 -- -- 77
2019-06-01 14:00:00 21 16 Noroeste 31 Noroeste 0 -- -- 77
2019-06-01 13:00:00 20.7 16 Noroeste 30 Norte 0 -- -- 81
2019-06-01 12:00:00 19.7 16 Noroeste 25 Noroeste 0 -- -- 82
2019-06-01 11:00:00 18.7 13 Noroeste 25 Noroeste 0 -- -- 86
2019-06-01 10:00:00 17.9 13 Noroeste 27 Norte 0 -- -- 89
2019-06-01 09:00:00 17.4 14 Noroeste 31 Oeste 0 -- -- 92
2019-06-01 08:00:00 17.1 16 Noroeste 33 Oeste 0 -- -- 91
2019-06-01 07:00:00 16.8 18 Noroeste 30 Oeste 0 -- -- 91
2019-06-01 06:00:00 16.7 15 Noroeste 25 Noroeste 0 -- -- 92
2019-06-01 05:00:00 16.5 12 Noroeste 26 Oeste 0 -- -- 92
2019-06-01 04:00:00 16.7 14 Oeste 30 Oeste 0 -- -- 91
2019-06-01 03:00:00 17 12 Noroeste 20 Noroeste 0 -- -- 90
2019-06-01 02:00:00 17.1 13 Noroeste 23 Oeste 0 -- -- 90
2019-06-01 01:00:00 17 13 Noroeste 27 Noroeste 0 -- -- 89
2019-06-01 00:00:00 17.3 15 Noroeste 31 Noroeste 0 -- -- 89
2019-05-31 23:00:00 17.2 19 Noroeste 35 Oeste 0 -- -- 88
2019-05-31 22:00:00 17.4 19 Noroeste 37 Noroeste 0 -- -- 89
2019-05-31 21:00:00 17.4 19 Noroeste 47 Noroeste 0 -- -- 88
2019-05-31 20:00:00 18.2 18 Noroeste 39 Noroeste 0 -- -- 85
2019-05-31 19:00:00 19.6 18 Noroeste 42 Oeste 0 -- -- 80
2019-05-31 18:00:00 20 20 Noroeste 36 Noroeste 0 -- -- 79
2019-05-31 17:00:00 20.5 21 Noroeste 40 Noroeste 0 -- -- 77
2019-05-31 16:00:00 21 20 Noroeste 39 Oeste 0 -- -- 74
2019-05-31 15:00:00 20.4 20 Noroeste 40 Noroeste 0 -- -- 74
2019-05-31 14:00:00 20.4 18 Noroeste 35 Noroeste 0 -- -- 77
2019-05-31 13:00:00 19.8 20 Noroeste 31 Noroeste 0 -- -- 80
2019-05-31 12:00:00 20 17 Noroeste 33 Noroeste 0 -- -- 79
2019-05-31 11:00:00 19.1 15 Noroeste 28 Noroeste 0 -- -- 83
2019-05-31 10:00:00 18.2 15 Noroeste 30 Noroeste 0 -- -- 86
2019-05-31 09:00:00 17.2 15 Noroeste 28 Oeste 0 -- -- 87
2019-05-31 08:00:00 16.5 14 Noroeste 28 Oeste 0 -- -- 88
2019-05-31 07:00:00 16.2 12 Noroeste 32 Oeste 0 -- -- 89
2019-05-31 06:00:00 16.2 17 Oeste 31 Oeste 0 -- -- 88
2019-05-31 05:00:00 16.5 17 Oeste 30 Noroeste 0 -- -- 87
2019-05-31 04:00:00 16.6 14 Noroeste 27 Oeste 0 -- -- 87
2019-05-31 03:00:00 16.9 15 Noroeste 33 Oeste 0 -- -- 85
2019-05-31 02:00:00 17.1 18 Noroeste 35 Noroeste 0 -- -- 85
2019-05-31 01:00:00 17 18 Oeste 36 Oeste 0 -- -- 84
2019-05-31 00:00:00 17.2 18 Noroeste 35 Noroeste 0 -- -- 85
2019-05-30 23:00:00 16.9 17 Noroeste 38 Oeste 0 -- -- 86
2019-05-30 22:00:00 17 21 Noroeste 37 Noroeste 0 -- -- 85
2019-05-30 21:00:00 17.1 20 Noroeste 38 Noroeste 0 -- -- 84
2019-05-30 20:00:00 18.1 19 Noroeste 36 Oeste 0 -- -- 80
2019-05-30 19:00:00 18.7 21 Noroeste 39 Noroeste 0 -- -- 77
2019-05-30 18:00:00 19.4 24 Noroeste 37 Noroeste 0 -- -- 76
2019-05-30 17:00:00 19.8 21 Noroeste 40 Norte 0 -- -- 74
2019-05-30 16:00:00 20.2 21 Noroeste 41 Noroeste 0 -- -- 73
2019-05-30 15:00:00 20.2 19 Noroeste 40 Noroeste 0 -- -- 73
2019-05-30 14:00:00 20.2 21 Noroeste 37 Noroeste 0 -- -- 73
2019-05-30 13:00:00 19.9 19 Noroeste 40 Noroeste 0 -- -- 75
2019-05-30 12:00:00 18.9 23 Noroeste 35 Noroeste 0 -- -- 77
2019-05-30 11:00:00 18.6 19 Noroeste 33 Noroeste 0 -- -- 77
2019-05-30 10:00:00 17.7 17 Noroeste 33 Noroeste 0 -- -- 79
2019-05-30 09:00:00 16.8 19 Noroeste 33 Noroeste 0 -- -- 82
2019-05-30 08:00:00 16.3 12 Noroeste 27 Oeste 0 -- -- 84
2019-05-30 07:00:00 15.8 14 Noroeste 29 Noroeste 0 -- -- 86
2019-05-30 06:00:00 15.8 15 Noroeste 28 Oeste 0 -- -- 86
2019-05-30 05:00:00 16 15 Noroeste 31 Oeste 0 -- -- 86
2019-05-30 04:00:00 16.1 15 Noroeste 30 Noroeste 0 -- -- 85
2019-05-30 03:00:00 16.3 15 Noroeste 29 Oeste 0 -- -- 83
2019-05-30 02:00:00 16.3 15 Noroeste 31 Noroeste 0 -- -- 84
2019-05-30 01:00:00 16.5 17 Noroeste 32 Noroeste 0 -- -- 84
2019-05-30 00:00:00 16.8 15 Noroeste 31 Oeste 0 -- -- 83
2019-05-29 23:00:00 16.7 19 Noroeste 33 Oeste 0 -- -- 83
2019-05-29 22:00:00 16.8 18 Noroeste 34 Noroeste 0 -- -- 83
2019-05-29 21:00:00 16.9 17 Noroeste 38 Oeste 0 -- -- 83
2019-05-29 20:00:00 17.6 19 Noroeste 38 Noroeste 0 -- -- 80
2019-05-29 19:00:00 18.7 17 Noroeste 36 Noroeste 0 -- -- 76
2019-05-29 18:00:00 19.4 17 Noroeste 36 Noroeste 0 -- -- 74
2019-05-29 17:00:00 20 17 Noroeste 37 Noroeste 0 -- -- 72
2019-05-29 16:00:00 20 17 Noroeste 34 Noroeste 0 -- -- 73
2019-05-29 15:00:00 20 19 Noroeste 36 Noroeste 0 -- -- 72
2019-05-29 14:00:00 19.3 23 Noroeste 38 Noroeste 0 -- -- 73
2019-05-29 13:00:00 19.4 20 Noroeste 35 Noroeste 0 -- -- 74
2019-05-29 12:00:00 18.7 19 Noroeste 35 Noroeste 0 -- -- 77
2019-05-29 11:00:00 17.6 19 Noroeste 34 Noroeste 0 -- -- 80
2019-05-29 10:00:00 17.2 16 Noroeste 33 Noroeste 0 -- -- 81
2019-05-29 09:00:00 16.3 17 Noroeste 35 Noroeste 0 -- -- 84
2019-05-29 08:00:00 16.1 17 Noroeste 31 Noroeste 0 -- -- 86
2019-05-29 07:00:00 16.4 15 Noroeste 30 Oeste 0 -- -- 85
2019-05-29 06:00:00 16.2 15 Oeste 31 Noroeste 0 -- -- 85
2019-05-29 05:00:00 16.5 14 Noroeste 30 Noroeste 0 -- -- 87
2019-05-29 04:00:00 16.5 15 Noroeste 33 Oeste 0 -- -- 84
2019-05-29 03:00:00 16.5 15 Noroeste 30 Noroeste 0 -- -- 84
2019-05-29 02:00:00 16.7 14 Noroeste 28 Noroeste 0 -- -- 86
2019-05-29 01:00:00 16.9 15 Noroeste 30 Noroeste 0 -- -- 86
2019-05-29 00:00:00 17.1 13 Noroeste 31 Noroeste 0 -- -- 83
2019-05-28 23:00:00 17.3 21 Noroeste 32 Noroeste 0 -- -- 83
2019-05-28 22:00:00 17.4 20 Noroeste 30 Noroeste 0 -- -- 83
2019-05-28 21:00:00 17.7 13 Noroeste 30 Noroeste 0 -- -- 82
2019-05-28 20:00:00 17.9 15 Noroeste 30 Noroeste 0 -- -- 83
2019-05-28 19:00:00 18.1 19 Noroeste 31 Noroeste 0 -- -- 82
2019-05-28 18:00:00 18.8 16 Noroeste 28 Noroeste 0 -- -- 82
2019-05-28 17:00:00 18.7 15 Noroeste 28 Noroeste 0 -- -- 84
2019-05-28 16:00:00 19.7 16 Noroeste 32 Noroeste 0 -- -- 81
2019-05-28 15:00:00 20.6 14 Noroeste 30 Noroeste 0 -- -- 72
2019-05-28 14:00:00 20 18 Noroeste 29 Noroeste 0 -- -- 76
2019-05-28 13:00:00 20 19 Noroeste 30 Noroeste 0 -- -- 74
2019-05-28 12:00:00 19.6 14 Noroeste 30 Noroeste 0 -- -- 76
2019-05-28 11:00:00 18.8 17 Noroeste 30 Noroeste 0 -- -- 80
2019-05-28 10:00:00 18.5 14 Noroeste 28 Noroeste 0 -- -- 82
2019-05-28 09:00:00 17.7 17 Noroeste 28 Noroeste 0 -- -- 84
2019-05-28 08:00:00 17.2 13 Noroeste 25 Noroeste 0 -- -- 88
2019-05-28 07:00:00 17.1 12 Noroeste 28 Oeste 0 -- -- 89
2019-05-28 06:00:00 17.1 13 Noroeste 25 Norte 0 -- -- 89
2019-05-28 05:00:00 17.2 13 Noroeste 24 Noroeste 0 -- -- 90
2019-05-28 04:00:00 17.1 13 Noroeste 25 Noroeste 0 -- -- 89
2019-05-28 03:00:00 17.1 13 Noroeste 26 Oeste 0 -- -- 88
2019-05-28 02:00:00 17 12 Noroeste 23 Noroeste 0 -- -- 91
2019-05-28 01:00:00 17 12 Noroeste 28 Noroeste 0 -- -- 87
2019-05-28 00:00:00 17.2 13 Noroeste 28 Noroeste 0 -- -- 88
2019-05-27 23:00:00 17.6 14 Noroeste 27 Noroeste 0 -- -- 86
2019-05-27 22:00:00 17.8 15 Noroeste 28 Noroeste 0 -- -- 86
2019-05-27 21:00:00 18 15 Noroeste 27 Noroeste 0 -- -- 86
2019-05-27 20:00:00 18.5 15 Noroeste 33 Noroeste 0 -- -- 82
2019-05-27 19:00:00 19.5 18 Noroeste 32 Noroeste 0 -- -- 81
2019-05-27 18:00:00 20.4 17 Noroeste 32 Noroeste 0 -- -- 78
2019-05-27 17:00:00 20.9 18 Noroeste 32 Noroeste 0 -- -- 76
2019-05-27 16:00:00 21.7 17 Noroeste 32 Noroeste 0 -- -- 72
2019-05-27 15:00:00 22.1 15 Noroeste 32 Noroeste 0 -- -- 68
2019-05-27 14:00:00 21.9 16 Noroeste 29 Noroeste 0 -- -- 67
2019-05-27 13:00:00 22.1 14 Noroeste 27 Noroeste 0 -- -- 70
2019-05-27 12:00:00 21.5 13 Noroeste 27 Noroeste 0 -- -- 70
2019-05-27 11:00:00 19.8 14 Noroeste 26 Noroeste 0 -- -- 76
2019-05-27 10:00:00 18.7 13 Noroeste 25 Noroeste 0 -- -- 82
2019-05-27 09:00:00 17.5 12 Noroeste 22 Noroeste 0 -- -- 87
2019-05-27 08:00:00 16.5 10 Oeste 22 Oeste 0 -- -- 89
2019-05-27 07:00:00 15.9 9 Oeste 21 Oeste 0 -- -- 91
2019-05-27 06:00:00 16.1 9 Noroeste 21 Oeste 0 -- -- 91
2019-05-27 05:00:00 16.1 12 Noroeste 27 Oeste 0 -- -- 90
2019-05-27 04:00:00 16.1 10 Oeste 23 Oeste 0 -- -- 90
2019-05-27 03:00:00 16.4 12 Noroeste 24 Noroeste 0 -- -- 91
2019-05-27 02:00:00 17.1 11 Noroeste 27 Oeste 0 -- -- 89
2019-05-27 01:00:00 17.1 16 Noroeste 31 Noroeste 0 -- -- 89
2019-05-27 00:00:00 17.3 12 Noroeste 28 Oeste 0 -- -- 88
2019-05-26 23:00:00 17.2 17 Noroeste 31 Oeste 0 -- -- 87
2019-05-26 22:00:00 17.3 14 Noroeste 25 Oeste 0 -- -- 87
2019-05-26 21:00:00 17.7 12 Noroeste 24 Noroeste 0 -- -- 85
2019-05-26 20:00:00 18.6 14 Noroeste 35 Noroeste 0 -- -- 82
2019-05-26 19:00:00 19.7 14 Noroeste 32 Noroeste 0 -- -- 77
2019-05-26 18:00:00 19.7 16 Noroeste 31 Noroeste 0 -- -- 77
2019-05-26 17:00:00 19.9 18 Noroeste 32 Noroeste 0 -- -- 76
2019-05-26 16:00:00 20.3 18 Noroeste 31 Noroeste 0 -- -- 73
2019-05-26 15:00:00 20.2 17 Noroeste 31 Oeste 0 -- -- 73
2019-05-26 14:00:00 20.5 19 Noroeste 36 Noroeste 0 -- -- 73
2019-05-26 13:00:00 20.2 17 Noroeste 31 Noroeste 0 -- -- 74
2019-05-26 12:00:00 19.8 17 Noroeste 30 Noroeste 0 -- -- 75
2019-05-26 11:00:00 18.4 17 Noroeste 31 Noroeste 0 -- -- 78
2019-05-26 10:00:00 17.8 17 Noroeste 31 Noroeste 0 -- -- 81
2019-05-26 09:00:00 17.1 17 Noroeste 32 Oeste 0 -- -- 86
2019-05-26 08:00:00 16.7 13 Noroeste 29 Noroeste 0 -- -- 86
2019-05-26 07:00:00 16 10 Noroeste 27 Noroeste 0 -- -- 85
2019-05-26 06:00:00 16.5 13 Noroeste 25 Oeste 0 -- -- 86
2019-05-26 05:00:00 16.6 11 Noroeste 24 Noroeste 0 -- -- 82
2019-05-26 04:00:00 16.7 13 Noroeste 24 Noroeste 0 -- -- 82
2019-05-26 03:00:00 16.7 13 Noroeste 27 Oeste 0 -- -- 76
2019-05-26 02:00:00 16.7 16 Noroeste 32 Noroeste 0 -- -- 77
2019-05-26 01:00:00 16.9 15 Noroeste 33 Noroeste 0 -- -- 78
2019-05-26 00:00:00 16.9 19 Noroeste 36 Noroeste 0 -- -- 80